»·PEaware :: N227LG KSNA-KAVX

N227LG :: KSNA-KAVX

FLIGHT INFORMATION

Flight Status: Arrived
Operator: Privately registered:
United States
More flights under this callsign
Pilot: Brian B. (27125)
Aircraft: PIPER PA-28R-201 ARROW
(P28R)
More flights by this aircraft type
Origin: KSNA John Wayne-Orange Co
United States
Destination: KAVX Catalina
United States
More flights between these airports :: More routes between these airports
Route: +SLI V21 SXC
File this flight plan on PilotEdge
Remarks: I-7 Full Approach Non-precision, Non-towered
Altitude:
(Current/Filed)
6,000ft
Speed:
(Current/Filed)
120kts
Departed: 06-Jan-20 03:47 PM
Arrived: 06-Jan-20 04:24 PM
Distance/Time
Traveled:
32nm/0:37
Distance/Time
To Go:
Arrived

Flight Plot

Page will automatically refresh every two minutes.


Map Options




Map Legend


Flown Route
Filed Route
Departure Airport
Arrival Airport
Navaid (VOR, NDB)
Fix

Horizontal Profiles

Position Reports

Time Latitude Longitude Heading Altitude Ground
Speed
06-Jan-20 15:27 33.675241 -117.871867 220 59ft 0kts
06-Jan-20 15:28 33.675241 -117.871867 220 59ft 0kts
06-Jan-20 15:29 33.675241 -117.871867 220 59ft 0kts
06-Jan-20 15:30 33.675241 -117.871867 220 59ft 0kts
06-Jan-20 15:31 33.675241 -117.871867 220 59ft 0kts
06-Jan-20 15:31 33.675229 -117.871879 220 59ft 0kts
06-Jan-20 15:33 33.675229 -117.871879 220 59ft 0kts
06-Jan-20 15:34 33.675229 -117.871879 220 59ft 0kts
06-Jan-20 15:34 33.675229 -117.871879 220 59ft 0kts
06-Jan-20 15:36 33.675229 -117.871879 220 59ft 0kts
06-Jan-20 15:37 33.674818 -117.871354 130 59ft 14kts
06-Jan-20 15:37 33.672854 -117.872112 208 59ft 23kts
06-Jan-20 15:39 33.670334 -117.873708 207 59ft 21kts
06-Jan-20 15:39 33.668247 -117.874537 125 59ft 2kts
06-Jan-20 15:40 33.668245 -117.874534 124 59ft 0kts
06-Jan-20 15:42 33.668245 -117.874534 124 59ft 0kts
06-Jan-20 15:42 33.668245 -117.874534 124 59ft 0kts
06-Jan-20 15:43 33.668292 -117.873522 27 59ft 0kts
06-Jan-20 15:44 33.668298 -117.873518 28 59ft 0kts
06-Jan-20 15:45 33.668298 -117.873518 28 59ft 0kts
06-Jan-20 15:46 33.670720 -117.871979 28 59ft 73kts
06-Jan-20 15:47 33.680576 -117.867381 0 520ft 92kts
06-Jan-20 15:48 33.687724 -117.876290 270 1294ft 86kts
06-Jan-20 15:49 33.683100 -117.891761 247 1992ft 96kts
06-Jan-20 15:50 33.676935 -117.908686 246 2682ft 102kts
06-Jan-20 15:51 33.668319 -117.923796 231 3344ft 103kts
06-Jan-20 15:52 33.657569 -117.940589 235 3895ft 115kts
06-Jan-20 15:53 33.644058 -117.963557 236 4024ft 136kts
06-Jan-20 15:54 33.628317 -117.990520 236 4037ft 139kts
06-Jan-20 15:55 33.612418 -118.017497 236 4035ft 140kts
06-Jan-20 15:56 33.597347 -118.042874 236 4029ft 140kts
06-Jan-20 15:57 33.582958 -118.067695 236 4005ft 141kts
06-Jan-20 15:58 33.567899 -118.093095 236 4052ft 139kts
06-Jan-20 15:59 33.551896 -118.120431 237 4014ft 142kts
06-Jan-20 16:00 33.534732 -118.149506 236 4064ft 137kts
06-Jan-20 16:01 33.517936 -118.177945 236 4091ft 137kts
06-Jan-20 16:02 33.500627 -118.207277 236 4059ft 136kts
06-Jan-20 16:03 33.483537 -118.236149 236 4051ft 136kts
06-Jan-20 16:04 33.466820 -118.264457 236 4057ft 137kts
06-Jan-20 16:05 33.449811 -118.293111 236 4051ft 138kts
06-Jan-20 16:06 33.432149 -118.323077 235 4075ft 138kts
06-Jan-20 16:07 33.414907 -118.352435 236 4092ft 142kts
06-Jan-20 16:08 33.398005 -118.381155 236 4084ft 139kts
06-Jan-20 16:09 33.393817 -118.411235 317 3871ft 135kts
06-Jan-20 16:10 33.417705 -118.412274 15 3915ft 124kts
06-Jan-20 16:11 33.441522 -118.409177 2 3940ft 131kts
06-Jan-20 16:12 33.466543 -118.407315 0 3747ft 132kts
06-Jan-20 16:13 33.489632 -118.424297 322 3559ft 126kts
06-Jan-20 16:14 33.510290 -118.444277 344 3556ft 116kts
06-Jan-20 16:15 33.519774 -118.425283 106 3798ft 122kts
06-Jan-20 16:16 33.501353 -118.400160 140 4023ft 129kts
06-Jan-20 16:17 33.479456 -118.379577 140 4321ft 115kts
06-Jan-20 16:18 33.460025 -118.360948 137 4176ft 108kts
06-Jan-20 16:19 33.443225 -118.349345 198 3686ft 73kts
06-Jan-20 16:20 33.432725 -118.367259 238 3035ft 89kts
06-Jan-20 16:21 33.422329 -118.386255 234 2254ft 81kts
06-Jan-20 16:22 33.412995 -118.402334 232 1755ft 76kts
06-Jan-20 16:23 33.405700 -118.414593 235 1535ft 21kts
06-Jan-20 16:24 33.405054 -118.415176 152 1543ft 0kts
06-Jan-20 16:25 33.405034 -118.415164 153 1543ft 3kts
06-Jan-20 16:26 33.403572 -118.414948 55 1544ft 3kts
06-Jan-20 16:27 33.403579 -118.414936 54 1544ft 0kts

Navigation Log

Ident Type
Flight plan parsing failed, navigation log unavailable